createdAt,value
2019-05-03T00:01:14.529Z,98941.47
2019-05-03T00:03:42.552Z,98942.66
2019-05-03T00:06:09.760Z,98936.47
2019-05-03T00:08:37.201Z,98939.83
2019-05-03T00:11:04.668Z,98944.94
2019-05-03T00:13:32.585Z,98947.09
2019-05-03T00:16:03.414Z,98951.48
2019-05-03T00:18:32.604Z,98946.17
2019-05-03T00:20:58.427Z,98946.88
2019-05-03T00:23:25.872Z,98950.20
2019-05-03T00:25:53.359Z,98942.59
2019-05-03T00:28:21.741Z,98947.46
2019-05-03T00:30:49.347Z,98953.12
2019-05-03T00:33:16.795Z,98952.23
2019-05-03T00:35:59.123Z,98950.34
2019-05-03T00:38:26.599Z,98946.27
2019-05-03T00:40:54.081Z,98949.78
2019-05-03T00:43:22.263Z,98947.80
2019-05-03T00:45:49.037Z,98947.81
2019-05-03T00:48:16.477Z,98948.80
2019-05-03T00:50:43.907Z,98948.83
2019-05-03T00:53:11.733Z,98956.95
2019-05-03T00:55:38.862Z,98954.90
2019-05-03T00:58:06.326Z,98956.13
2019-05-03T01:00:33.791Z,98957.70
2019-05-03T01:03:02.276Z,98956.05
2019-05-03T01:05:29.861Z,98945.17
2019-05-03T01:07:57.331Z,98950.75
2019-05-03T01:10:24.787Z,98952.91
2019-05-03T01:12:52.504Z,98952.80
2019-05-03T01:15:25.736Z,98949.16
2019-05-03T01:17:53.208Z,98949.15
2019-05-03T01:20:22.443Z,98944.31
2019-05-03T01:22:48.161Z,98946.89
2019-05-03T01:25:23.274Z,98947.09
2019-05-03T01:27:43.887Z,98944.70
2019-05-03T01:30:11.939Z,98938.00
2019-05-03T01:32:38.858Z,98941.00
2019-05-03T01:35:06.340Z,98945.48
2019-05-03T01:37:33.797Z,98944.41
2019-05-03T01:40:02.296Z,98949.00
2019-05-03T01:42:28.751Z,98950.22
2019-05-03T01:44:56.218Z,98944.08
2019-05-03T01:47:24.019Z,98954.96
2019-05-03T01:49:52.058Z,98946.70
2019-05-03T01:52:19.028Z,98944.86
2019-05-03T01:54:46.502Z,98947.46
2019-05-03T01:57:14.425Z,98944.86
2019-05-03T01:59:42.567Z,98940.71
2019-05-03T02:02:12.510Z,98939.54
2019-05-03T02:04:41.760Z,98945.09
2019-05-03T02:07:07.686Z,98948.98
2019-05-03T02:09:35.177Z,98953.05
2019-05-03T02:12:02.698Z,98953.27
2019-05-03T02:14:31.760Z,98956.11
2019-05-03T02:16:57.721Z,98950.41
2019-05-03T02:19:25.214Z,98958.41
2019-05-03T02:21:52.714Z,98956.83
2019-05-03T02:24:21.981Z,98957.42
2019-05-03T02:26:48.862Z,98954.06
2019-05-03T02:29:16.315Z,98961.28
2019-05-03T02:31:43.896Z,98979.11
2019-05-03T02:34:12.503Z,98971.13
2019-05-03T02:36:38.912Z,98979.27
2019-05-03T02:39:07.201Z,98983.69
2019-05-03T02:41:34.680Z,98986.06
2019-05-03T02:44:02.155Z,98990.44
2019-05-03T02:46:29.636Z,98993.09
2019-05-03T02:49:16.220Z,98990.81
2019-05-03T02:51:46.037Z,98989.08
2019-05-03T02:54:11.191Z,98988.66
2019-05-03T02:56:38.681Z,98990.04
2019-05-03T02:59:06.384Z,98989.58
2019-05-03T03:01:35.776Z,98994.17
2019-05-03T03:04:01.198Z,98984.09
2019-05-03T03:06:28.670Z,98985.27
2019-05-03T03:08:56.262Z,98991.33
2019-05-03T03:11:26.088Z,98987.69
2019-05-03T03:13:55.055Z,98993.78
2019-05-03T03:16:20.821Z,98995.91
2019-05-03T03:18:47.844Z,99002.98
2019-05-03T03:21:16.868Z,99001.94
2019-05-03T03:24:09.170Z,98996.52
2019-05-03T03:26:41.485Z,99004.72
2019-05-03T03:29:05.892Z,99002.87
2019-05-03T03:31:59.097Z,99006.73
2019-05-03T03:34:29.421Z,99010.25
2019-05-03T03:37:03.807Z,99005.93
2019-05-03T03:39:25.943Z,99010.86
2019-05-03T03:41:51.983Z,99014.38
2019-05-03T03:44:19.461Z,99002.80
2019-05-03T03:46:49.735Z,99009.08
2019-05-03T03:49:17.943Z,99009.62
2019-05-03T03:51:45.633Z,99015.88
2019-05-03T03:54:15.369Z,99017.09
2019-05-03T03:56:54.584Z,99019.44
2019-05-03T03:59:07.991Z,99018.64
2019-05-03T04:01:35.574Z,99015.86
2019-05-03T04:04:05.373Z,99023.34
2019-05-03T04:06:36.056Z,99024.98
2019-05-03T04:09:05.169Z,99029.40
2019-05-03T04:11:31.069Z,99034.34
2019-05-03T04:13:58.548Z,99031.57
2019-05-03T04:16:26.146Z,99037.88
2019-05-03T04:18:56.023Z,99038.69
2019-05-03T04:21:29.904Z,99042.48
2019-05-03T04:23:57.397Z,99046.03
2019-05-03T04:26:29.384Z,99051.01
2019-05-03T04:28:52.393Z,99058.17
2019-05-03T04:31:19.874Z,99060.49
2019-05-03T04:33:47.526Z,99065.25
2019-05-03T04:36:15.919Z,99064.08
2019-05-03T04:38:45.185Z,99073.95
2019-05-03T04:41:09.993Z,99071.79
2019-05-03T04:43:37.460Z,99081.65
2019-05-03T04:46:12.284Z,99077.64
2019-05-03T04:51:00.168Z,99091.95
2019-05-03T04:53:27.639Z,99087.13
2019-05-03T04:55:55.929Z,99094.09
2019-05-03T04:58:25.677Z,99098.86
2019-05-03T05:00:50.117Z,99105.17
2019-05-03T05:03:18.194Z,99098.92
2019-05-03T05:05:45.639Z,99110.86
2019-05-03T05:08:13.056Z,99108.50
2019-05-03T05:10:40.513Z,99109.36
2019-05-03T05:13:07.934Z,99104.70
2019-05-03T05:15:35.651Z,99121.82
2019-05-03T05:18:05.787Z,99122.72
2019-05-03T05:20:32.558Z,99118.93
2019-05-03T05:23:00.000Z,99121.79
2019-05-03T05:25:27.801Z,99125.41
2019-05-03T05:28:11.980Z,99121.91
2019-05-03T05:30:39.446Z,99134.34
2019-05-03T05:33:06.889Z,99123.23
2019-05-03T05:35:35.203Z,99132.22
2019-05-03T05:38:01.800Z,99130.48
2019-05-03T05:40:29.241Z,99131.57
2019-05-03T05:42:57.449Z,99133.50
2019-05-03T05:45:24.893Z,99132.03
2019-05-03T05:48:05.174Z,99136.05
2019-05-03T05:50:31.986Z,99140.23
2019-05-03T05:52:59.448Z,99141.35
2019-05-03T05:55:44.832Z,99144.83
2019-05-03T05:58:15.694Z,99146.25
2019-05-03T06:00:46.577Z,99147.80
2019-05-03T06:03:14.950Z,99150.20
2019-05-03T06:05:41.579Z,99149.98
2019-05-03T06:08:10.375Z,99153.06
2019-05-03T06:10:57.547Z,99160.45
2019-05-03T06:13:29.610Z,99155.23
2019-05-03T06:15:57.058Z,99163.00
2019-05-03T06:18:35.336Z,99158.67
2019-05-03T06:21:12.371Z,99163.34
2019-05-03T06:23:56.325Z,99168.33
2019-05-03T06:26:28.577Z,99165.66
2019-05-03T06:28:56.120Z,99172.95
2019-05-03T06:31:25.247Z,99170.36
2019-05-03T06:33:52.593Z,99173.02
2019-05-03T06:36:19.892Z,99166.67
2019-05-03T06:38:47.521Z,99169.61
2019-05-03T06:41:16.283Z,99173.13
2019-05-03T06:43:45.014Z,99176.70
2019-05-03T06:46:10.317Z,99170.97
2019-05-03T06:48:37.754Z,99172.12
2019-05-03T06:51:10.427Z,99176.41
2019-05-03T06:53:34.397Z,99177.51
2019-05-03T06:56:00.058Z,99179.97
2019-05-03T06:58:33.066Z,99171.69
2019-05-03T07:00:58.431Z,99173.01
2019-05-03T07:03:35.325Z,99168.16
2019-05-03T07:06:06.641Z,99161.26
2019-05-03T07:08:35.899Z,99171.13
2019-05-03T07:11:05.111Z,99165.10
2019-05-03T07:13:30.804Z,99170.73
2019-05-03T07:15:58.232Z,99174.52
2019-05-03T07:18:25.665Z,99173.09
2019-05-03T07:20:56.520Z,99168.46
2019-05-03T07:23:21.110Z,99172.22
2019-05-03T07:25:48.573Z,99173.56
2019-05-03T07:28:15.982Z,99173.98
2019-05-03T07:30:45.198Z,99178.42
2019-05-03T07:33:10.868Z,99174.88
2019-05-03T07:35:38.334Z,99175.34
2019-05-03T07:38:05.780Z,99175.98
2019-05-03T07:40:35.221Z,99176.41
2019-05-03T07:43:01.214Z,99176.20
2019-05-03T07:45:28.654Z,99171.52
2019-05-03T07:47:56.149Z,99176.23
2019-05-03T07:50:25.562Z,99166.64
2019-05-03T07:52:51.723Z,99165.17
2019-05-03T07:55:19.139Z,99163.74
2019-05-03T07:57:49.995Z,99165.56
2019-05-03T08:00:17.430Z,99159.68
2019-05-03T08:02:44.876Z,99170.53
2019-05-03T08:05:12.328Z,99164.47
2019-05-03T08:07:39.767Z,99170.88
2019-05-03T08:10:07.184Z,99169.30
2019-05-03T08:12:34.960Z,99163.63
2019-05-03T08:15:02.099Z,99163.21
2019-05-03T08:17:29.541Z,99164.92
2019-05-03T08:19:56.975Z,99162.95
2019-05-03T08:22:25.842Z,99171.38
2019-05-03T08:24:55.317Z,99172.69
2019-05-03T08:27:20.791Z,99180.66
2019-05-03T08:29:48.254Z,99174.11
2019-05-03T08:32:18.222Z,99180.36
2019-05-03T08:35:00.559Z,99171.28
2019-05-03T08:37:28.211Z,99181.08
2019-05-03T08:39:55.515Z,99178.94
2019-05-03T08:42:25.203Z,99176.23
2019-05-03T08:44:50.407Z,99177.31
2019-05-03T08:47:17.832Z,99182.72
2019-05-03T08:49:45.294Z,99183.95
2019-05-03T08:52:12.717Z,99184.27
2019-05-03T08:54:40.155Z,99187.20
2019-05-03T08:57:07.600Z,99183.39
2019-05-03T08:59:35.709Z,99173.39
2019-05-03T09:02:03.709Z,99172.86
2019-05-03T09:04:37.546Z,99170.56
2019-05-03T09:06:58.482Z,99175.42
2019-05-03T09:09:42.659Z,99175.54
2019-05-03T09:12:10.102Z,99167.38
2019-05-03T09:14:42.510Z,99176.84
2019-05-03T09:17:05.084Z,99173.57
2019-05-03T09:19:34.557Z,99162.95
2019-05-03T09:22:00.267Z,99168.40
2019-05-03T09:24:27.701Z,99163.00
2019-05-03T09:26:55.664Z,99170.30
2019-05-03T09:29:22.646Z,99164.72
2019-05-03T09:31:50.091Z,99164.06
2019-05-03T09:34:17.529Z,99168.80
2019-05-03T09:36:50.184Z,99155.41
2019-05-03T09:39:17.642Z,99155.03
2019-05-03T09:41:45.160Z,99160.77
2019-05-03T09:44:15.070Z,99157.29
2019-05-03T09:46:41.502Z,99146.84
2019-05-03T09:49:13.363Z,99152.36
2019-05-03T09:51:36.397Z,99141.45
2019-05-03T09:54:07.287Z,99139.59
2019-05-03T09:56:47.918Z,99138.38
2019-05-03T09:59:07.832Z,99139.42
2019-05-03T10:01:35.288Z,99143.79
2019-05-03T10:04:02.750Z,99138.27
2019-05-03T10:06:30.226Z,99130.15
2019-05-03T10:08:57.675Z,99140.58
2019-05-03T10:11:25.422Z,99136.44
2019-05-03T10:13:52.570Z,99141.17
2019-05-03T10:16:20.007Z,99141.00
2019-05-03T10:18:47.444Z,99144.05
2019-05-03T10:21:15.006Z,99146.82
2019-05-03T10:23:42.393Z,99140.73
2019-05-03T10:26:09.925Z,99145.34
2019-05-03T10:28:37.353Z,99152.63
2019-05-03T10:31:07.458Z,99147.34
2019-05-03T10:33:32.268Z,99144.70
2019-05-03T10:35:59.729Z,99143.88
2019-05-03T10:38:27.151Z,99145.59
2019-05-03T10:40:55.215Z,99144.77
2019-05-03T10:43:24.654Z,99135.73
2019-05-03T10:45:50.141Z,99132.56
2019-05-03T10:48:17.575Z,99131.36
2019-05-03T10:50:45.014Z,99127.95
2019-05-03T10:53:15.990Z,99122.63
2019-05-03T10:55:45.064Z,99132.14
2019-05-03T11:01:01.276Z,99127.40
2019-05-03T11:03:28.714Z,99133.38
2019-05-03T11:05:56.164Z,99132.14
2019-05-03T11:08:23.577Z,99141.95
2019-05-03T11:10:51.025Z,99136.08
2019-05-03T11:13:18.446Z,99130.73
2019-05-03T11:15:45.914Z,99136.83
2019-05-03T11:18:14.716Z,99136.77
2019-05-03T11:20:40.881Z,99130.67
2019-05-03T11:23:08.361Z,99129.35
2019-05-03T11:25:35.782Z,99131.73
2019-05-03T11:28:04.899Z,99126.55
2019-05-03T11:30:30.728Z,99127.45
2019-05-03T11:33:00.681Z,99117.55
2019-05-03T11:35:44.665Z,99118.95
2019-05-03T11:38:15.166Z,99121.60
2019-05-03T11:40:42.718Z,99122.72
2019-05-03T11:43:10.173Z,99125.00
2019-05-03T11:45:37.607Z,99117.75
2019-05-03T11:48:05.054Z,99124.04
2019-05-03T11:50:34.626Z,99114.72
2019-05-03T11:53:00.077Z,99119.81
2019-05-03T11:55:27.556Z,99110.33
2019-05-03T11:57:56.647Z,99116.59
2019-05-03T12:00:22.532Z,99111.56
2019-05-03T12:02:50.317Z,99107.11
2019-05-03T12:05:24.568Z,99109.23
2019-05-03T12:07:51.870Z,99095.11
2019-05-03T12:10:32.230Z,99093.65
2019-05-03T12:13:04.897Z,99094.30
2019-05-03T12:15:30.641Z,99096.56
2019-05-03T12:17:59.356Z,99096.25
2019-05-03T12:20:28.700Z,99094.33
2019-05-03T12:22:53.573Z,99090.95
2019-05-03T12:25:21.180Z,99093.26
2019-05-03T12:27:47.981Z,99084.63
2019-05-03T12:30:15.417Z,99093.80
2019-05-03T12:32:42.878Z,99082.14
2019-05-03T12:35:10.304Z,99074.31
2019-05-03T12:37:37.762Z,99074.34
2019-05-03T12:40:05.605Z,99073.97
2019-05-03T12:42:35.226Z,99077.45
2019-05-03T12:45:00.091Z,99081.17
2019-05-03T12:47:27.873Z,99083.28
2019-05-03T12:49:55.852Z,99084.84
2019-05-03T12:52:25.588Z,99081.37
2019-05-03T12:54:50.346Z,99080.84
2019-05-03T12:57:17.796Z,99084.36
2019-05-03T12:59:45.636Z,99077.97
2019-05-03T13:02:19.032Z,99073.89
2019-05-03T13:04:46.489Z,99077.52
2019-05-03T13:07:14.911Z,99068.63
2019-05-03T13:09:42.372Z,99072.66
2019-05-03T13:12:09.839Z,99077.58
2019-05-03T13:14:37.270Z,99068.94
2019-05-03T13:17:04.877Z,99066.48
2019-05-03T13:19:32.223Z,99069.50
2019-05-03T13:21:59.678Z,99079.95
2019-05-03T13:24:27.130Z,99068.23
2019-05-03T13:26:54.634Z,99072.66
2019-05-03T13:29:22.088Z,99061.73
2019-05-03T13:32:01.279Z,99057.81
2019-05-03T13:34:17.074Z,99056.79
2019-05-03T13:36:45.668Z,99062.10
2019-05-03T13:39:14.570Z,99054.66
2019-05-03T13:41:39.560Z,99055.66
2019-05-03T13:44:07.029Z,99051.08
2019-05-03T13:46:35.284Z,99045.89
2019-05-03T13:49:01.939Z,99051.55
2019-05-03T13:51:29.399Z,99051.05
2019-05-03T13:53:56.860Z,99043.96
2019-05-03T13:56:24.703Z,99042.06
2019-05-03T13:58:51.786Z,99040.42
2019-05-03T14:01:19.239Z,99040.21
2019-05-03T14:03:46.677Z,99037.73
2019-05-03T14:06:14.222Z,99030.73
2019-05-03T14:08:41.692Z,99033.89
2019-05-03T14:11:09.132Z,99028.58
2019-05-03T14:13:36.589Z,99031.81
2019-05-03T14:16:05.499Z,99028.02
2019-05-03T14:18:32.318Z,99019.59
2019-05-03T14:21:06.339Z,99019.80
2019-05-03T14:23:34.686Z,99020.58
2019-05-03T14:26:01.412Z,99012.31
2019-05-03T14:28:28.867Z,99008.17
2019-05-03T14:30:56.303Z,99011.70
2019-05-03T14:33:24.948Z,99012.22
2019-05-03T14:35:52.311Z,99008.61
2019-05-03T14:38:19.785Z,99009.56
2019-05-03T14:40:47.422Z,99010.03
2019-05-03T14:43:15.423Z,99014.44
2019-05-03T14:45:42.159Z,99013.73
2019-05-03T14:48:09.609Z,99012.27
2019-05-03T14:50:37.052Z,99013.52
2019-05-03T14:53:05.501Z,99018.00
2019-05-03T14:55:35.457Z,99013.03
2019-05-03T14:58:08.455Z,99011.58
2019-05-03T15:00:38.861Z,99006.46
2019-05-03T15:03:07.206Z,99003.69
2019-05-03T15:05:34.870Z,99000.38
2019-05-03T15:08:02.136Z,99016.45
2019-05-03T15:10:29.587Z,99002.95
2019-05-03T15:12:57.153Z,99005.06
2019-05-03T15:15:25.127Z,98997.67
2019-05-03T15:17:52.059Z,98995.02
2019-05-03T15:20:19.512Z,98998.91
2019-05-03T15:22:46.984Z,99004.48
2019-05-03T15:25:14.422Z,98999.81
2019-05-03T15:27:41.858Z,98997.72
2019-05-03T15:30:09.295Z,98991.66
2019-05-03T15:32:36.754Z,98998.97
2019-05-03T15:35:07.919Z,98983.88
2019-05-03T15:37:35.849Z,98993.73
2019-05-03T15:40:05.717Z,98992.25
2019-05-03T15:42:30.345Z,98995.67
2019-05-03T15:45:16.665Z,98993.44
2019-05-03T15:48:04.663Z,98990.95
2019-05-03T15:50:32.117Z,98992.03
2019-05-03T15:52:59.565Z,98995.58
2019-05-03T15:55:27.040Z,99001.68
2019-05-03T15:57:55.283Z,98999.27
2019-05-03T16:00:21.915Z,99001.59
2019-05-03T16:02:49.356Z,98992.65
2019-05-03T16:05:17.122Z,98990.62
2019-05-03T16:07:44.682Z,98991.92
2019-05-03T16:10:12.115Z,98984.73
2019-05-03T16:12:39.541Z,98990.28
2019-05-03T16:15:07.000Z,98988.17
2019-05-03T16:17:35.398Z,98991.66
2019-05-03T16:20:02.367Z,98986.78
2019-05-03T16:22:29.814Z,98984.31
2019-05-03T16:24:57.241Z,98975.77
2019-05-03T16:27:41.458Z,98975.00
2019-05-03T16:30:09.243Z,98981.09
2019-05-03T16:32:36.687Z,98979.27
2019-05-03T16:35:04.499Z,98975.63
2019-05-03T16:37:34.434Z,98974.66
2019-05-03T16:40:00.115Z,98981.03
2019-05-03T16:42:27.562Z,98983.75
2019-05-03T16:44:55.071Z,98982.28
2019-05-03T16:47:22.504Z,98991.45
2019-05-03T16:49:49.954Z,98981.86
2019-05-03T16:52:17.568Z,98980.66
2019-05-03T16:54:46.059Z,98976.00
2019-05-03T16:57:14.850Z,98972.39
2019-05-03T16:59:41.101Z,98969.70
2019-05-03T17:02:08.545Z,98972.27
2019-05-03T17:04:37.827Z,98974.13
2019-05-03T17:07:06.625Z,98968.24
2019-05-03T17:09:50.854Z,98971.45
2019-05-03T17:12:25.537Z,98971.00
2019-05-03T17:14:51.054Z,98968.64
2019-05-03T17:17:18.471Z,98974.73
2019-05-03T17:19:45.930Z,98971.74
2019-05-03T17:22:16.963Z,98976.53
2019-05-03T17:24:40.831Z,98977.86
2019-05-03T17:27:08.261Z,98969.22
2019-05-03T17:29:35.711Z,98972.92
2019-05-03T17:32:04.882Z,98977.66
2019-05-03T17:34:31.309Z,98972.49
2019-05-03T17:36:58.872Z,98975.42
2019-05-03T17:39:45.446Z,98965.41
2019-05-03T17:42:25.941Z,98963.40
2019-05-03T17:44:54.627Z,98962.83
2019-05-03T17:47:21.911Z,98963.04
2019-05-03T17:49:50.067Z,98965.67
2019-05-03T17:52:20.058Z,98967.58
2019-05-03T17:54:57.411Z,98970.63
2019-05-03T17:57:44.526Z,98963.05
2019-05-03T18:00:16.734Z,98971.58
2019-05-03T18:02:45.131Z,98970.78
2019-05-03T18:05:17.109Z,98958.97
2019-05-03T18:07:46.074Z,98970.70
2019-05-03T18:10:15.146Z,98959.09
2019-05-03T18:12:40.935Z,98966.02
2019-05-03T18:15:08.421Z,98963.02
2019-05-03T18:17:35.865Z,98961.88
2019-05-03T18:20:04.554Z,98957.38
2019-05-03T18:22:30.815Z,98953.02
2019-05-03T18:24:58.269Z,98959.19
2019-05-03T18:27:25.731Z,98959.66
2019-05-03T18:29:53.142Z,98955.40
2019-05-03T18:32:20.569Z,98959.94
2019-05-03T18:34:48.054Z,98957.04
2019-05-03T18:37:15.510Z,98955.20
2019-05-03T18:39:45.097Z,98958.52
2019-05-03T18:42:10.542Z,98957.31
2019-05-03T18:44:38.901Z,98959.56
2019-05-03T18:47:06.373Z,98959.50
2019-05-03T18:49:35.347Z,98960.23
2019-05-03T18:52:01.410Z,98960.01
2019-05-03T18:54:28.864Z,98957.19
2019-05-03T18:56:56.335Z,98958.78
2019-05-03T18:59:23.756Z,98953.80
2019-05-03T19:01:51.215Z,98958.30
2019-05-03T19:04:31.514Z,98963.48
2019-05-03T19:07:00.829Z,98961.22
2019-05-03T19:09:17.902Z,98958.73
2019-05-03T19:11:48.205Z,98959.92
2019-05-03T19:14:17.425Z,98961.73
2019-05-03T19:16:59.716Z,98960.67
2019-05-03T19:19:31.646Z,98955.93
2019-05-03T19:21:59.063Z,98960.11
2019-05-03T19:24:26.503Z,98963.20
2019-05-03T19:26:54.375Z,98961.31
2019-05-03T19:29:21.490Z,98960.75
2019-05-03T19:31:48.933Z,98966.48
2019-05-03T19:34:16.385Z,98956.95
2019-05-03T19:36:45.677Z,98960.36
2019-05-03T19:39:11.282Z,98960.94
2019-05-03T19:41:38.738Z,98961.52
2019-05-03T19:44:06.418Z,98957.04
2019-05-03T19:46:35.156Z,98961.65
2019-05-03T19:49:02.345Z,98960.52
2019-05-03T19:51:29.788Z,98958.44
2019-05-03T19:53:57.211Z,98953.53
2019-05-03T19:56:25.615Z,98954.55
2019-05-03T19:58:52.171Z,98956.78
2019-05-03T20:01:39.235Z,98951.13
2019-05-03T20:04:24.581Z,98956.22
2019-05-03T20:07:01.811Z,98949.63
2019-05-03T20:09:29.592Z,98943.84
2019-05-03T20:11:57.089Z,98943.90
2019-05-03T20:14:25.760Z,98945.26
2019-05-03T20:16:52.235Z,98945.23
2019-05-03T20:19:21.374Z,98945.61
2019-05-03T20:21:47.160Z,98943.09
2019-05-03T20:24:14.933Z,98941.37
2019-05-03T20:26:42.085Z,98938.97
2019-05-03T20:29:09.514Z,98934.27
2019-05-03T20:31:37.384Z,98937.94
2019-05-03T20:34:05.368Z,98936.45
2019-05-03T20:36:32.326Z,98938.56
2019-05-03T20:38:59.772Z,98935.92
2019-05-03T20:41:27.541Z,98940.50
2019-05-03T20:43:59.099Z,98935.13
2019-05-03T20:46:32.009Z,98935.72
2019-05-03T20:49:00.235Z,98926.91
2019-05-03T20:51:27.684Z,98922.92
2019-05-03T20:53:55.405Z,98927.52
2019-05-03T20:56:24.507Z,98928.98
2019-05-03T20:58:50.080Z,98921.90
2019-05-03T21:01:17.517Z,98927.37
2019-05-03T21:03:45.102Z,98924.05
2019-05-03T21:06:12.452Z,98928.03
2019-05-03T21:08:52.209Z,98928.26
2019-05-03T21:11:08.095Z,98925.16
2019-05-03T21:13:41.955Z,98923.75
2019-05-03T21:16:03.833Z,98922.95
2019-05-03T21:18:34.487Z,98922.70
2019-05-03T21:21:03.509Z,98922.08
2019-05-03T21:23:34.423Z,98915.23
2019-05-03T21:26:11.408Z,98911.55
2019-05-03T21:28:27.765Z,98914.13
2019-05-03T21:30:55.219Z,98911.02
2019-05-03T21:33:22.669Z,98908.12
2019-05-03T21:35:52.013Z,98896.93
2019-05-03T21:38:19.600Z,98894.36
2019-05-03T21:40:47.042Z,98898.30
2019-05-03T21:43:15.252Z,98903.25
2019-05-03T21:45:42.284Z,98907.36
2019-05-03T21:48:10.542Z,98910.05
2019-05-03T21:50:38.930Z,98914.95
2019-05-03T21:53:06.400Z,98923.89
2019-05-03T21:55:35.438Z,98914.33
2019-05-03T21:58:01.368Z,98913.00
2019-05-03T22:00:28.770Z,98904.95
2019-05-03T22:02:56.748Z,98899.08
2019-05-03T22:05:26.309Z,98898.05
2019-05-03T22:07:51.170Z,98897.36
2019-05-03T22:10:19.356Z,98891.32
2019-05-03T22:12:46.808Z,98900.36
2019-05-03T22:15:17.088Z,98894.91
2019-05-03T22:17:50.116Z,98893.78
2019-05-03T22:20:20.063Z,98891.16
2019-05-03T22:23:08.239Z,98898.42
2019-05-03T22:25:36.072Z,98893.73
2019-05-03T22:28:04.579Z,98884.99
2019-05-03T22:30:30.959Z,98892.70
2019-05-03T22:32:58.396Z,98887.53
2019-05-03T22:35:25.867Z,98881.11
2019-05-03T22:37:55.065Z,98879.92
2019-05-03T22:40:20.774Z,98875.92
2019-05-03T22:42:48.256Z,98873.42
2019-05-03T22:45:15.728Z,98874.27
2019-05-03T22:47:44.603Z,98870.45
2019-05-03T22:50:10.680Z,98866.70
2019-05-03T22:52:38.107Z,98869.20
2019-05-03T22:55:05.577Z,98866.60
2019-05-03T22:57:34.875Z,98862.84
2019-05-03T23:00:00.482Z,98860.75
2019-05-03T23:02:27.921Z,98860.20
2019-05-03T23:04:55.550Z,98860.30
2019-05-03T23:07:24.848Z,98863.64
2019-05-03T23:09:50.311Z,98859.28
2019-05-03T23:12:17.745Z,98854.83
2019-05-03T23:14:45.210Z,98845.89
2019-05-03T23:17:14.773Z,98843.09
2019-05-03T23:19:40.641Z,98844.05
2019-05-03T23:22:15.334Z,98840.94
2019-05-03T23:24:42.009Z,98838.62
2019-05-03T23:27:09.420Z,98837.41
2019-05-03T23:29:36.883Z,98828.51
2019-05-03T23:32:04.687Z,98825.59
2019-05-03T23:34:31.791Z,98825.75
2019-05-03T23:36:59.245Z,98819.37
2019-05-03T23:39:26.680Z,98823.77
2019-05-03T23:41:55.771Z,98820.33
2019-05-03T23:44:21.634Z,98822.80
2019-05-03T23:47:05.219Z,98821.56
2019-05-03T23:49:31.283Z,98814.42
2019-05-03T23:51:58.745Z,98815.28
2019-05-03T23:54:26.194Z,98810.91
2019-05-03T23:56:54.774Z,98809.55
2019-05-03T23:59:21.120Z,98812.47
